Time;durP1;ratioP1;P1;durP2;ratioP2;P2;SDS_P1;SDS_P2;PMS_P1;PMS_P2;Temp;Humidity;BMP_temperature;BMP_pressure;BME280_temperature;BME280_humidity;BME280_pressure;Samples;Min_cycle;Max_cycle;Signal;HPM_P1;HPM_P2
2023/01/03 00:02:00;;;;;;;16.10;11.33;;;;;;;7.52;73.18;99805.55;1792347;80;21577;-40
2023/01/03 00:04:27;;;;;;;15.68;12.05;;;;;;;7.55;73.24;99806.22;1792419;80;21063;-40
2023/01/03 00:06:53;;;;;;;15.20;11.95;;;;;;;7.53;73.31;99803.64;1792203;80;21027;-40
2023/01/03 00:09:23;;;;;;;16.10;11.65;;;;;;;7.46;73.18;99800.66;1792184;80;21014;-40
2023/01/03 00:14:39;;;;;;;17.20;11.73;;;;;;;7.34;73.50;99801.38;1792295;80;20920;-40
2023/01/03 00:17:07;;;;;;;14.28;11.65;;;;;;;7.28;73.70;99795.39;1792604;80;21188;-40
2023/01/03 00:19:36;;;;;;;15.60;11.63;;;;;;;7.31;73.96;99797.42;1792443;80;21394;-40
2023/01/03 00:22:04;;;;;;;15.55;11.63;;;;;;;7.37;73.97;99793.42;1792371;80;20983;-40
2023/01/03 00:24:31;;;;;;;14.73;11.50;;;;;;;7.44;74.04;99790.22;1792221;80;21094;-40
2023/01/03 00:26:57;;;;;;;18.82;12.40;;;;;;;7.42;74.05;99791.09;1792279;80;21078;-40
2023/01/03 00:29:24;;;;;;;18.55;12.98;;;;;;;7.39;74.00;99785.80;1791130;80;23144;-41
2023/01/03 00:31:51;;;;;;;17.12;12.82;;;;;;;7.33;74.29;99791.70;1784094;80;21050;-40
2023/01/03 00:34:17;;;;;;;15.13;11.83;;;;;;;7.26;74.46;99782.77;1784172;80;20964;-40
2023/01/03 00:36:44;;;;;;;17.15;11.12;;;;;;;7.23;74.56;99782.64;1784184;80;21093;-41
2023/01/03 00:39:11;;;;;;;15.98;12.35;;;;;;;7.23;74.78;99771.86;1784170;80;21098;-40
2023/01/03 00:41:39;;;;;;;15.55;12.33;;;;;;;7.21;74.97;99777.56;1784040;80;21211;-41
2023/01/03 00:44:06;;;;;;;17.82;12.78;;;;;;;7.17;75.22;99775.30;1784112;80;20928;-40
2023/01/03 00:46:33;;;;;;;18.85;13.08;;;;;;;7.13;75.32;99778.42;1784098;80;20991;-40
2023/01/03 00:49:00;;;;;;;19.55;12.58;;;;;;;7.09;75.41;99777.49;1784087;80;21044;-41
2023/01/03 00:51:31;;;;;;;17.17;11.90;;;;;;;7.04;75.46;99768.24;1784330;80;21036;-40
2023/01/03 00:54:00;;;;;;;14.85;10.90;;;;;;;7.08;75.53;99767.81;1784040;80;21231;-41
2023/01/03 00:56:31;;;;;;;15.75;12.05;;;;;;;7.13;75.29;99770.33;1784170;80;20968;-40
2023/01/03 00:58:59;;;;;;;17.48;12.00;;;;;;;7.15;75.22;99767.31;1784399;80;21035;-40
2023/01/03 01:01:29;;;;;;;20.80;12.35;;;;;;;7.18;75.24;99757.22;1784166;80;20997;-40
2023/01/03 01:04:01;;;;;;;16.65;11.60;;;;;;;7.15;75.14;99761.92;1783797;80;21048;-40
2023/01/03 01:06:31;;;;;;;20.75;12.73;;;;;;;7.11;75.21;99759.09;1784160;80;21130;-40
2023/01/03 01:08:59;;;;;;;16.02;11.63;;;;;;;7.07;75.24;99755.45;1784492;80;21119;-40
2023/01/03 01:11:29;;;;;;;11.10;8.55;;;;;;;7.08;75.11;99750.84;1784353;80;20980;-40
2023/01/03 01:13:56;;;;;;;13.55;10.65;;;;;;;7.08;75.00;99743.55;1783998;80;21016;-40
2023/01/03 01:16:29;;;;;;;14.58;10.98;;;;;;;7.09;75.03;99742.45;1784238;80;21070;-40
2023/01/03 01:18:58;;;;;;;15.53;12.07;;;;;;;7.05;75.32;99740.73;1784361;80;21240;-40
2023/01/03 01:21:29;;;;;;;16.62;12.33;;;;;;;7.02;75.44;99727.92;1784230;80;20983;-40
2023/01/03 01:23:58;;;;;;;18.48;12.37;;;;;;;6.65;75.50;99675.08;1784257;80;20944;-41
2023/01/03 01:26:25;;;;;;;17.92;11.73;;;;;;;6.95;75.59;99723.03;1784410;80;21015;-41
2023/01/03 01:28:53;;;;;;;17.17;11.18;;;;;;;6.93;75.55;99723.91;1784252;80;21023;-40
2023/01/03 01:31:23;;;;;;;15.50;11.22;;;;;;;6.90;75.53;99715.12;1779319;79;21209;-40
2023/01/03 01:33:52;;;;;;;15.48;11.78;;;;;;;6.90;75.70;99716.48;1777872;80;21550;-40
2023/01/03 01:36:23;;;;;;;16.30;11.43;;;;;;;6.87;76.13;99707.70;1777907;80;21015;-40
2023/01/03 01:38:59;;;;;;;16.93;12.40;;;;;;;6.86;76.21;99696.69;1777781;80;21554;-41
2023/01/03 01:45:07;;;;;;;18.30;11.30;;;;;;;6.88;76.40;99689.05;1778110;80;21857;-40
2023/01/03 01:47:58;;;;;;;16.45;11.05;;;;;;;6.86;76.17;99680.52;1777838;80;21890;-40
2023/01/03 01:50:43;;;;;;;;;;;;;;;6.86;76.10;99677.83;1780330;80;20944;-40
2023/01/03 01:53:17;;;;;;;16.87;12.33;;;;;;;6.81;76.32;99674.77;1778224;80;20457;-40
2023/01/03 01:55:52;;;;;;;18.07;12.70;;;;;;;6.71;76.76;99670.30;1749441;80;21510;-40
2023/01/03 01:58:20;;;;;;;19.50;13.20;;;;;;;6.73;76.65;99668.09;1777933;80;21219;-40
2023/01/03 02:00:47;;;;;;;17.07;11.73;;;;;;;6.74;76.42;99666.95;1778027;80;21541;-40
2023/01/03 02:03:13;;;;;;;18.70;11.20;;;;;;;6.72;76.32;99660.56;1777873;80;20933;-40
2023/01/03 02:05:48;;;;;;;14.98;11.45;;;;;;;6.70;76.38;99661.43;1777863;80;21035;-40
2023/01/03 02:08:14;;;;;;;20.32;11.70;;;;;;;6.67;76.52;99655.36;1778042;80;21525;-40
2023/01/03 02:11:02;;;;;;;17.23;12.40;;;;;;;6.62;76.86;99658.79;1722941;80;23090;-40
2023/01/03 02:13:54;;;;;;;18.17;12.07;;;;;;;6.62;77.19;99652.05;1777790;80;20976;-40
2023/01/03 02:17:02;;;;;;;16.93;11.68;;;;;;;6.59;77.28;99654.03;1777922;80;21020;-40
2023/01/03 02:20:00;;;;;;;16.73;11.25;;;;;;;6.62;77.11;99650.16;1777762;80;20984;-40
2023/01/03 02:22:50;;;;;;;16.67;11.55;;;;;;;6.63;76.92;99639.62;1777958;80;20993;-40
2023/01/03 02:25:43;;;;;;;18.95;12.33;;;;;;;6.60;76.97;99640.80;1778024;80;22004;-40
2023/01/03 02:28:28;;;;;;;18.10;12.90;;;;;;;6.54;77.04;99635.60;1776967;80;21586;-40
2023/01/03 02:31:25;;;;;;;20.37;13.43;;;;;;;6.48;77.08;99632.09;1776684;80;21118;-40
2023/01/03 02:34:06;;;;;;;18.05;13.08;;;;;;;6.42;77.31;99632.83;1775744;80;21055;-40
2023/01/03 02:36:47;;;;;;;16.17;11.53;;;;;;;6.39;77.40;99630.77;1777732;80;21507;-40
2023/01/03 02:39:22;;;;;;;15.70;12.00;;;;;;;6.43;77.37;99626.34;1777598;80;21175;-40
2023/01/03 02:44:51;;;;;;;17.40;13.22;;;;;;;6.37;77.57;99621.45;1777851;80;21079;-40
2023/01/03 02:47:18;;;;;;;19.92;13.43;;;;;;;6.33;77.62;99618.63;1777855;80;21499;-40
2023/01/03 02:49:51;;;;;;;16.90;11.88;;;;;;;6.31;77.58;99618.15;1777646;80;21601;-40
2023/01/03 02:52:24;;;;;;;18.07;12.10;;;;;;;6.32;77.41;99621.08;1724521;80;21351;-40
2023/01/03 02:54:57;;;;;;;18.57;11.85;;;;;;;6.37;77.24;99626.28;1778150;80;20960;-40
2023/01/03 02:57:42;;;;;;;14.60;11.60;;;;;;;6.39;77.11;99622.69;1777934;80;20952;-40
2023/01/03 03:00:13;;;;;;;17.32;12.80;;;;;;;6.06;77.15;99568.70;1777848;80;21083;-40
2023/01/03 03:02:43;;;;;;;15.68;12.80;;;;;;;6.40;76.98;99617.55;1777710;80;21514;-40
2023/01/03 03:05:13;;;;;;;13.53;9.95;;;;;;;6.42;76.78;99629.34;1778101;80;21141;-40
2023/01/03 03:07:40;;;;;;;16.87;11.55;;;;;;;6.39;76.47;99625.38;1777771;80;20972;-40
2023/01/03 03:13:13;;;;;;;15.30;11.90;;;;;;;6.39;76.16;99624.62;1778008;80;21502;-40
2023/01/03 03:15:51;;;;;;;14.55;11.97;;;;;;;6.36;76.25;99617.97;1777809;80;21629;-40
2023/01/03 03:18:47;;;;;;;16.40;12.10;;;;;;;6.31;76.52;99613.31;1777780;80;21534;-40
2023/01/03 03:26:54;;;;;;;17.60;11.40;;;;;;;6.13;77.11;99616.66;1745190;80;21006;-40
2023/01/03 03:29:21;;;;;;;18.95;13.20;;;;;;;6.11;77.23;99608.89;1748897;82;21040;-40
2023/01/03 03:31:49;;;;;;;19.77;12.70;;;;;;;6.14;77.43;99616.89;1752143;81;21221;-40
2023/01/03 03:34:24;;;;;;;19.37;13.53;;;;;;;6.10;77.55;99607.86;1743015;82;20906;-41
2023/01/03 03:36:56;;;;;;;20.02;13.50;;;;;;;6.06;77.57;99607.73;1742984;81;21021;-40
2023/01/03 03:45:42;;;;;;;17.87;12.40;;;;;;;6.02;77.43;99596.59;1743203;82;21311;-40
2023/01/03 03:48:24;;;;;;;17.05;12.03;;;;;;;5.94;77.60;99594.18;1742890;82;21534;-40
2023/01/03 03:50:55;;;;;;;18.40;13.60;;;;;;;5.88;77.78;99598.15;1724627;82;21029;-40
2023/01/03 03:53:26;;;;;;;19.95;13.62;;;;;;;5.84;77.91;99589.67;1743106;82;21033;-41
2023/01/03 03:55:57;;;;;;;19.20;12.40;;;;;;;5.81;77.97;99593.02;1743079;82;21033;-40
2023/01/03 03:58:39;;;;;;;19.55;12.45;;;;;;;5.83;77.91;99592.13;1742983;81;23139;-40
2023/01/03 04:01:06;;;;;;;16.05;12.10;;;;;;;5.87;77.72;99591.73;1741713;82;21013;-41
2023/01/03 04:03:33;;;;;;;17.90;12.88;;;;;;;5.91;77.76;99595.36;1711870;82;21060;-40
2023/01/03 04:06:03;;;;;;;18.35;13.22;;;;;;;5.94;77.87;99600.11;1742960;82;20930;-40
2023/01/03 04:08:30;;;;;;;18.12;13.30;;;;;;;5.96;77.95;99595.18;1743262;82;21045;-40
2023/01/03 04:11:04;;;;;;;18.37;12.23;;;;;;;5.97;77.96;99586.00;1743001;81;21231;-40
2023/01/03 04:13:25;;;;;;;17.90;12.65;;;;;;;6.00;77.73;99582.69;1742754;81;21109;-40
2023/01/03 04:15:53;;;;;;;18.02;12.23;;;;;;;6.05;77.53;99584.61;1743063;81;21476;-40
2023/01/03 04:18:20;;;;;;;18.32;12.05;;;;;;;6.09;77.44;99586.12;1743041;82;20977;-40
2023/01/03 04:20:46;;;;;;;19.77;13.03;;;;;;;6.05;77.33;99575.77;1742934;81;21049;-40
2023/01/03 04:23:14;;;;;;;21.60;13.70;;;;;;;6.01;77.44;99572.13;1742874;82;23149;-40
2023/01/03 04:25:42;;;;;;;18.60;13.40;;;;;;;5.96;77.54;99575.00;1743033;81;21536;-40
2023/01/03 04:28:08;;;;;;;17.25;12.10;;;;;;;5.91;77.53;99581.91;1742912;82;21037;-40
2023/01/03 04:30:35;;;;;;;16.97;12.30;;;;;;;5.86;77.55;99572.08;1743545;81;21018;-40
2023/01/03 04:33:04;;;;;;;16.85;12.50;;;;;;;5.85;77.79;99565.70;1752288;81;21680;-40
2023/01/03 04:35:31;;;;;;;19.10;12.55;;;;;;;5.78;78.03;99568.08;1751953;81;21237;-40
2023/01/03 04:37:58;;;;;;;16.25;12.45;;;;;;;5.68;78.26;99561.95;1751966;81;21598;-40
2023/01/03 04:40:25;;;;;;;19.32;12.25;;;;;;;5.62;78.47;99563.22;1752125;81;20977;-40
2023/01/03 04:45:39;;;;;;;17.85;12.68;;;;;;;5.62;78.45;99561.88;1752079;81;21082;-40
2023/01/03 04:48:06;;;;;;;18.80;13.35;;;;;;;5.60;78.38;99568.16;1751929;81;21224;-40
2023/01/03 04:50:32;;;;;;;21.82;14.40;;;;;;;5.55;78.72;99563.50;1746369;81;21126;-40
2023/01/03 04:52:59;;;;;;;19.37;14.03;;;;;;;5.50;79.04;99561.77;1752158;81;20994;-40
2023/01/03 04:55:26;;;;;;;16.80;12.18;;;;;;;5.46;79.14;99561.39;1752216;81;21522;-40
2023/01/03 04:57:53;;;;;;;17.95;12.28;;;;;;;5.48;79.05;99570.70;1752107;81;21032;-40
2023/01/03 05:00:20;;;;;;;19.15;12.88;;;;;;;5.49;79.04;99573.63;1752214;81;21310;-40
2023/01/03 05:02:47;;;;;;;18.65;13.43;;;;;;;5.48;79.12;99569.91;1752098;81;21559;-40
2023/01/03 05:05:13;;;;;;;20.50;14.13;;;;;;;5.42;79.13;99565.83;1752283;81;21088;-40
2023/01/03 05:07:42;;;;;;;18.70;13.48;;;;;;;5.34;79.25;99567.41;1752189;81;21065;-40
2023/01/03 05:10:08;;;;;;;20.65;12.82;;;;;;;5.24;79.35;99558.34;1752288;81;21104;-40
2023/01/03 05:12:35;;;;;;;15.68;12.40;;;;;;;5.27;79.30;99565.78;1752472;81;21120;-40
2023/01/03 05:15:02;;;;;;;21.70;13.70;;;;;;;5.30;79.34;99555.73;1752028;81;21587;-40
2023/01/03 05:17:29;;;;;;;18.55;13.18;;;;;;;5.28;79.57;99555.82;1752358;81;21142;-40
2023/01/03 05:28:12;;;;;;;18.73;12.45;;;;;;;5.29;79.16;99551.45;1752112;81;21610;-40
2023/01/03 05:30:39;;;;;;;22.90;14.58;;;;;;;5.28;79.37;99549.87;1752017;81;20988;-40
2023/01/03 05:33:06;;;;;;;19.40;14.75;;;;;;;5.24;79.65;99547.59;1743434;81;21025;-40
2023/01/03 05:35:32;;;;;;;20.57;13.88;;;;;;;5.23;79.96;99547.34;1743198;82;21017;-40
2023/01/03 05:37:59;;;;;;;18.20;13.00;;;;;;;5.23;79.97;99540.08;1743027;82;23102;-40
2023/01/03 05:40:25;;;;;;;17.77;12.35;;;;;;;5.27;79.91;99542.94;1743179;82;21504;-40
2023/01/03 05:42:52;;;;;;;18.52;13.78;;;;;;;5.33;79.88;99539.50;1742974;82;21001;-40
2023/01/03 05:45:24;;;;;;;21.07;14.45;;;;;;;5.33;80.12;99538.95;1743059;82;20907;-40
2023/01/03 05:47:48;;;;;;;21.55;15.10;;;;;;;5.34;80.17;99534.36;1742961;81;21108;-40
2023/01/03 05:50:15;;;;;;;20.75;14.28;;;;;;;5.33;80.25;99534.91;1743207;81;21302;-40
2023/01/03 05:52:42;;;;;;;21.07;14.30;;;;;;;5.35;80.25;99534.61;1743171;81;21518;-40
2023/01/03 05:55:09;;;;;;;23.83;13.98;;;;;;;5.42;80.24;99535.67;1742991;82;21030;-40
2023/01/03 05:57:36;;;;;;;21.20;14.73;;;;;;;5.48;80.24;99533.05;1743180;82;20985;-40
2023/01/03 06:00:04;;;;;;;20.82;14.43;;;;;;;5.48;80.42;99536.30;1743151;81;21040;-40
2023/01/03 06:02:33;;;;;;;17.98;14.23;;;;;;;5.47;80.69;99536.84;1743561;82;21148;-40
2023/01/03 06:05:00;;;;;;;20.45;13.93;;;;;;;5.46;81.00;99547.95;1742958;81;21001;-40
2023/01/03 06:07:29;;;;;;;18.92;12.25;;;;;;;5.47;80.98;99547.61;1743229;82;21035;-40
2023/01/03 06:09:56;;;;;;;15.13;12.45;;;;;;;5.53;80.75;99549.57;1743271;82;21084;-40
2023/01/03 06:12:28;;;;;;;18.75;13.50;;;;;;;5.56;80.67;99549.74;1743161;82;21041;-40
2023/01/03 06:14:55;;;;;;;18.95;13.50;;;;;;;5.52;80.71;99543.41;1743264;81;21378;-40
2023/01/03 06:20:08;;;;;;;17.10;12.25;;;;;;;5.53;80.47;99546.33;1743170;82;21013;-40
2023/01/03 06:22:35;;;;;;;15.63;12.93;;;;;;;5.55;80.24;99537.95;1743380;82;20993;-40
2023/01/03 06:25:02;;;;;;;19.15;13.55;;;;;;;5.57;80.27;99533.81;1743164;82;21084;-40
2023/01/03 06:27:29;;;;;;;19.75;13.80;;;;;;;5.57;80.35;99560.70;1743176;82;21130;-40
2023/01/03 06:29:56;;;;;;;15.88;11.93;;;;;;;5.54;80.55;99557.33;1742821;82;21020;-40
2023/01/03 06:32:23;;;;;;;15.65;11.48;;;;;;;5.55;80.75;99563.50;1747774;81;21024;-40
2023/01/03 06:34:50;;;;;;;17.37;11.55;;;;;;;5.61;80.86;99556.29;1751965;81;21032;-40
2023/01/03 06:37:17;;;;;;;17.52;11.53;;;;;;;5.68;80.85;99561.95;1752078;81;21055;-40
2023/01/03 06:39:44;;;;;;;13.93;11.22;;;;;;;5.67;80.82;99566.30;1752450;81;21460;-40
2023/01/03 06:53:17;;;;;;;18.42;12.80;;;;;;;5.73;80.85;99587.09;1752572;81;21108;-40
2023/01/03 06:55:44;;;;;;;19.60;12.07;;;;;;;5.71;81.28;99573.98;1752205;81;20949;-40
2023/01/03 06:58:12;;;;;;;17.95;12.25;;;;;;;5.72;81.62;99575.53;1746612;81;21100;-40
2023/01/03 07:00:41;;;;;;;17.05;11.12;;;;;;;5.72;81.81;99580.13;1752163;81;21491;-40
2023/01/03 07:03:08;;;;;;;14.75;11.45;;;;;;;5.82;81.71;99589.98;1752535;81;21518;-40
2023/01/03 07:05:35;;;;;;;17.50;12.37;;;;;;;5.90;81.74;99597.84;1752074;81;21244;-40
2023/01/03 07:08:02;;;;;;;18.37;11.70;;;;;;;5.89;82.38;99601.08;1752031;81;20925;-40
2023/01/03 07:10:29;;;;;;;14.50;10.68;;;;;;;5.92;82.81;99600.42;1752129;81;20999;-40
2023/01/03 07:15:46;;;;;;;;;;;;;;;6.09;83.00;99608.45;1754813;81;21048;-40
2023/01/03 07:18:13;;;;;;;15.65;11.80;;;;;;;6.16;83.27;99611.17;1752064;81;21116;-40
2023/01/03 07:20:42;;;;;;;13.95;10.85;;;;;;;6.10;83.80;99603.27;1752064;81;21774;-40
2023/01/03 07:23:09;;;;;;;16.07;11.88;;;;;;;6.22;83.86;99615.27;1752008;81;21024;-40
2023/01/03 07:25:40;;;;;;;16.82;11.57;;;;;;;6.34;83.77;99612.10;1752331;81;21045;-40
2023/01/03 07:28:04;;;;;;;16.80;12.70;;;;;;;6.46;83.68;99610.07;1751834;81;21459;-40
2023/01/03 07:30:41;;;;;;;17.48;11.45;;;;;;;6.51;83.62;99613.37;1752114;81;21229;-40
2023/01/03 07:33:09;;;;;;;15.50;11.40;;;;;;;6.53;83.56;99620.55;1749923;81;21056;-40
2023/01/03 07:35:36;;;;;;;15.68;11.78;;;;;;;6.59;83.56;99624.41;1748891;82;21565;-40
2023/01/03 07:38:04;;;;;;;17.82;12.07;;;;;;;6.71;83.45;99626.64;1748853;82;20981;-40
2023/01/03 07:40:31;;;;;;;21.40;14.13;;;;;;;6.83;83.25;99632.65;1748939;82;21049;-40
2023/01/03 07:45:45;;;;;;;23.12;15.88;;;;;;;6.91;83.30;99627.78;1748948;81;21024;-40
2023/01/03 07:48:12;;;;;;;22.35;14.47;;;;;;;7.00;83.15;99628.50;1748859;82;21067;-40
2023/01/03 07:50:40;;;;;;;18.70;13.93;;;;;;;7.10;83.02;99612.48;1748770;81;21006;-40
2023/01/03 07:53:07;;;;;;;18.98;13.90;;;;;;;7.18;82.92;99625.89;1748868;82;21048;-40
2023/01/03 07:55:35;;;;;;;23.32;16.48;;;;;;;7.22;82.78;99634.89;1748860;82;21232;-40
2023/01/03 07:58:02;;;;;;;24.85;16.73;;;;;;;7.28;82.82;99640.88;1748692;81;20976;-40
2023/01/03 08:00:29;;;;;;;19.05;14.35;;;;;;;7.38;82.49;99639.12;1748791;82;20937;-40
2023/01/03 08:02:55;;;;;;;20.90;13.80;;;;;;;7.48;82.12;99646.02;1748860;82;20993;-40
2023/01/03 08:05:23;;;;;;;17.90;13.10;;;;;;;7.51;81.99;99645.34;1748954;82;21036;-40
2023/01/03 08:07:51;;;;;;;16.33;11.83;;;;;;;7.53;81.90;99649.86;1748931;82;21515;-40
2023/01/03 08:13:16;;;;;;;15.08;11.35;;;;;;;7.72;81.66;99645.55;1748901;81;20981;-40
2023/01/03 08:15:51;;;;;;;19.17;11.80;;;;;;;7.90;81.28;99641.30;1748786;82;21575;-40
2023/01/03 08:18:24;;;;;;;19.60;12.73;;;;;;;8.00;81.31;99648.41;1748840;82;21053;-40
2023/01/03 08:20:54;;;;;;;15.35;11.10;;;;;;;8.13;80.68;99646.53;1749049;82;21259;-40
2023/01/03 08:23:22;;;;;;;14.80;10.28;;;;;;;8.27;80.13;99644.30;1748822;82;21017;-40
2023/01/03 08:25:49;;;;;;;14.95;11.22;;;;;;;8.41;79.54;99642.08;1748753;81;21016;-40
2023/01/03 08:28:16;;;;;;;17.45;12.05;;;;;;;8.53;79.51;99649.38;1748926;82;21028;-40
2023/01/03 08:30:47;;;;;;;16.27;10.78;;;;;;;8.61;78.69;99634.42;1748847;81;21530;-40
2023/01/03 08:33:17;;;;;;;13.30;9.75;;;;;;;8.72;78.74;99640.92;1745322;82;23202;-40
2023/01/03 08:35:48;;;;;;;13.93;10.60;;;;;;;8.90;78.31;99645.53;1743188;82;20994;-40
2023/01/03 08:38:18;;;;;;;14.00;10.80;;;;;;;9.07;77.77;99642.55;1743147;81;21098;-40
2023/01/03 08:40:45;;;;;;;15.30;11.40;;;;;;;9.18;76.70;99649.63;1743176;81;21531;-40
2023/01/03 08:43:12;;;;;;;13.50;10.72;;;;;;;9.26;76.72;99644.63;1743122;81;21013;-40
2023/01/03 08:47:48;;;;;;;16.55;11.12;;;;;;;9.54;75.65;99640.57;1774534;79;23172;-41
2023/01/03 08:50:14;;;;;;;16.65;12.18;;;;;;;9.60;75.40;99640.55;1746518;82;20975;-40
2023/01/03 08:52:41;;;;;;;16.50;12.35;;;;;;;9.73;74.74;99637.99;1746485;82;21253;-40
2023/01/03 08:55:09;;;;;;;14.28;11.12;;;;;;;9.80;73.95;99633.34;1746382;82;21022;-40
2023/01/03 08:57:36;;;;;;;15.38;10.93;;;;;;;9.89;73.80;99640.73;1746395;82;20943;-40
2023/01/03 09:00:04;;;;;;;14.98;11.45;;;;;;;10.00;72.70;99639.88;1746283;82;21072;-40
2023/01/03 09:02:34;;;;;;;;;;;;;;;10.06;72.59;99641.77;1749164;82;20990;-40
2023/01/03 09:05:01;;;;;;;15.18;11.22;;;;;;;10.11;72.37;99639.37;1746357;82;21120;-41
2023/01/03 09:07:27;;;;;;;15.50;11.10;;;;;;;10.08;72.55;99625.94;1746300;82;20982;-40
2023/01/03 09:09:54;;;;;;;15.80;10.90;;;;;;;10.19;72.31;99624.88;1746417;82;21603;-41
2023/01/03 09:12:20;;;;;;;14.63;10.58;;;;;;;10.27;71.85;99626.05;1746317;82;20978;-40
2023/01/03 09:14:47;;;;;;;15.20;11.65;;;;;;;10.39;70.85;99623.83;1746358;82;21022;-40
2023/01/03 09:17:14;;;;;;;15.95;11.73;;;;;;;10.43;70.29;99616.56;1746380;82;21242;-40
2023/01/03 09:19:40;;;;;;;15.72;11.83;;;;;;;10.42;70.38;99609.56;1746253;82;21548;-41
2023/01/03 09:22:07;;;;;;;14.20;11.63;;;;;;;10.43;70.55;99616.56;1746509;82;20947;-40
2023/01/03 09:24:34;;;;;;;14.75;10.50;;;;;;;10.46;70.49;99612.57;1746436;82;21008;-40
2023/01/03 09:27:01;;;;;;;12.37;10.45;;;;;;;10.51;70.37;99618.29;1746292;82;21545;-41
2023/01/03 09:29:27;;;;;;;15.70;11.03;;;;;;;10.65;69.97;99617.85;1746429;82;21146;-41
2023/01/03 09:31:54;;;;;;;15.45;11.40;;;;;;;10.77;69.48;99614.44;1746380;82;21022;-41
2023/01/03 09:34:22;;;;;;;15.23;11.68;;;;;;;10.88;69.17;99606.55;1746404;82;20944;-41
2023/01/03 09:36:49;;;;;;;16.77;11.40;;;;;;;11.02;69.25;99611.48;1747311;80;20951;-41
2023/01/03 09:39:16;;;;;;;15.93;11.10;;;;;;;11.16;68.25;99615.27;1788243;80;21048;-41
2023/01/03 09:41:42;;;;;;;13.98;11.53;;;;;;;11.24;67.72;99603.41;1788159;80;23133;-41
2023/01/03 09:44:09;;;;;;;14.18;10.75;;;;;;;11.33;67.69;99610.76;1788187;80;20953;-41
2023/01/03 09:46:37;;;;;;;16.70;11.18;;;;;;;11.47;67.48;99607.55;1783006;80;20906;-41
2023/01/03 09:49:05;;;;;;;16.48;11.28;;;;;;;11.60;66.87;99610.31;1774657;80;21010;-41
2023/01/03 10:03:42;;;;;;;17.02;11.48;;;;;;;11.81;65.79;99633.05;1717019;80;20954;-41
2023/01/03 10:06:56;;;;;;;16.30;11.45;;;;;;;11.88;65.75;99629.08;1774232;80;20941;-41
2023/01/03 10:09:43;;;;;;;16.70;11.22;;;;;;;11.95;65.34;99625.72;1774224;80;21228;-41
2023/01/03 10:12:37;;;;;;;16.82;11.78;;;;;;;11.98;65.02;99626.34;1774043;80;20965;-41
2023/01/03 10:15:16;;;;;;;15.70;11.20;;;;;;;12.00;65.14;99629.50;1774022;80;20925;-41
2023/01/03 10:18:07;;;;;;;14.18;11.22;;;;;;;12.04;64.95;99623.55;1774180;80;20970;-41
2023/01/03 10:21:00;;;;;;;19.80;10.93;;;;;;;12.13;64.60;99620.80;1774268;80;20961;-41
2023/01/03 10:23:27;;;;;;;16.27;11.83;;;;;;;12.21;64.34;99621.69;1774128;80;22032;-40
2023/01/03 10:25:55;;;;;;;17.70;12.23;;;;;;;12.33;63.90;99631.02;1752231;80;21036;-41
2023/01/03 10:28:25;;;;;;;17.02;12.33;;;;;;;12.38;63.70;99625.84;1728121;80;20981;-41
2023/01/03 10:31:20;;;;;;;17.02;11.30;;;;;;;12.43;63.41;99633.13;1774064;80;21618;-41
2023/01/03 10:33:48;;;;;;;17.80;11.75;;;;;;;12.49;63.11;99626.20;1774272;80;20994;-41
2023/01/03 10:36:16;;;;;;;16.17;11.48;;;;;;;12.55;63.00;99635.63;1774130;80;21285;-41
2023/01/03 10:38:47;;;;;;;16.62;11.28;;;;;;;12.61;62.79;99640.98;1774321;80;21008;-41
2023/01/03 10:41:32;;;;;;;14.68;10.03;;;;;;;12.66;63.23;99647.25;1773820;80;21051;-41
2023/01/03 10:44:01;;;;;;;13.65;9.95;;;;;;;12.64;62.86;99648.39;1772782;80;21001;-41
2023/01/03 10:46:29;;;;;;;13.00;9.58;;;;;;;12.52;62.92;99645.89;1774003;80;21484;-41
2023/01/03 10:49:13;;;;;;;16.25;10.68;;;;;;;12.40;63.11;99640.63;1774480;80;21527;-41
2023/01/03 10:51:57;;;;;;;11.95;9.70;;;;;;;12.20;63.70;99629.63;1750837;80;20925;-41
2023/01/03 10:54:42;;;;;;;15.10;10.18;;;;;;;12.07;64.13;99627.67;1774334;80;21769;-41
2023/01/03 10:57:36;;;;;;;13.65;10.43;;;;;;;12.01;64.37;99629.69;1773984;80;20965;-41
2023/01/03 11:00:28;;;;;;;15.08;9.85;;;;;;;11.97;64.59;99628.84;1774533;80;21041;-41
2023/01/03 11:03:10;;;;;;;13.58;9.75;;;;;;;12.02;64.53;99625.83;1774169;80;21250;-41
2023/01/03 11:05:40;;;;;;;15.78;9.90;;;;;;;12.13;64.10;99621.36;1774216;80;20946;-41
2023/01/03 11:08:21;;;;;;;12.73;10.08;;;;;;;12.25;63.77;99630.67;1774143;80;21654;-41
2023/01/03 11:10:55;;;;;;;13.18;9.50;;;;;;;12.41;63.34;99625.89;1771514;80;20974;-41
2023/01/03 11:13:24;;;;;;;12.50;9.98;;;;;;;12.55;62.80;99620.67;1774244;80;21006;-41
2023/01/03 11:15:56;;;;;;;13.23;9.80;;;;;;;12.71;62.22;99621.09;1774553;80;21090;-41
2023/01/03 11:18:24;;;;;;;16.67;10.05;;;;;;;12.84;62.06;99625.95;1773991;80;20953;-41
2023/01/03 11:21:08;;;;;;;11.60;8.70;;;;;;;12.94;61.69;99628.03;1774467;80;21015;-41
2023/01/03 11:24:03;;;;;;;12.37;9.38;;;;;;;13.04;60.96;99641.00;1752480;80;20930;-41
2023/01/03 11:26:44;;;;;;;11.68;9.05;;;;;;;13.02;60.42;99641.17;1739026;80;21053;-41
2023/01/03 11:29:17;;;;;;;13.60;9.85;;;;;;;12.87;60.82;99643.48;1774125;80;22018;-41
2023/01/03 11:32:21;;;;;;;13.43;9.30;;;;;;;12.79;61.23;99640.44;1773953;80;21496;-41
2023/01/03 11:35:16;;;;;;;12.07;9.48;;;;;;;12.81;61.62;99643.59;1773988;80;20934;-41
2023/01/03 11:38:00;;;;;;;15.53;9.60;;;;;;;12.79;61.34;99649.96;1774086;80;21045;-41
2023/01/03 11:40:44;;;;;;;12.28;9.43;;;;;;;12.66;61.60;99639.09;1773840;80;21013;-41
2023/01/03 11:43:48;;;;;;;13.35;9.00;;;;;;;12.55;62.05;99652.52;1773995;80;21136;-41
2023/01/03 11:46:45;;;;;;;13.90;8.73;;;;;;;12.52;62.29;99650.54;1759121;80;21004;-41
2023/01/03 11:49:37;;;;;;;13.72;9.60;;;;;;;12.50;62.34;99645.45;1762266;80;21010;-41
2023/01/03 11:52:16;;;;;;;13.13;8.90;;;;;;;12.52;62.63;99649.18;1773772;80;21568;-41
2023/01/03 11:55:09;;;;;;;14.00;9.90;;;;;;;12.63;62.19;99641.98;1773999;80;21001;-41
2023/01/03 11:58:06;;;;;;;14.20;10.13;;;;;;;12.77;61.60;99643.55;1773574;80;21252;-41
2023/01/03 12:00:44;;;;;;;14.28;9.45;;;;;;;12.85;61.22;99641.13;1774026;80;21009;-41
2023/01/03 12:03:31;;;;;;;14.40;9.43;;;;;;;12.92;61.30;99637.73;1773923;80;21009;-41
2023/01/03 12:06:40;;;;;;;14.40;9.78;;;;;;;13.01;61.01;99636.30;1767948;80;21020;-41
2023/01/03 12:09:26;;;;;;;11.68;9.35;;;;;;;13.12;60.45;99631.61;1774045;80;20965;-41
2023/01/03 12:12:06;;;;;;;12.88;8.78;;;;;;;13.17;60.10;99627.20;1774049;80;21166;-41
2023/01/03 12:14:38;;;;;;;14.38;9.38;;;;;;;13.25;59.98;99627.49;1774150;80;21008;-41
2023/01/03 12:17:12;;;;;;;13.00;9.28;;;;;;;13.31;59.63;99625.41;1774052;80;21000;-41
2023/01/03 12:19:45;;;;;;;11.57;9.30;;;;;;;13.27;59.50;99628.67;1773911;80;21071;-41
2023/01/03 12:22:38;;;;;;;12.40;8.83;;;;;;;13.15;59.77;99624.84;1773889;80;20993;-41
2023/01/03 12:25:31;;;;;;;14.85;9.48;;;;;;;12.99;60.18;99624.20;1774039;80;21227;-41
2023/01/03 12:28:06;;;;;;;13.93;9.63;;;;;;;12.84;60.58;99628.67;1773979;80;20934;-41
2023/01/03 12:30:45;;;;;;;15.38;10.10;;;;;;;12.68;60.82;99627.28;1773730;80;20981;-41
2023/01/03 12:33:33;;;;;;;13.22;9.33;;;;;;;12.51;61.35;99634.80;1774271;80;21064;-41
2023/01/03 12:36:57;;;;;;;10.95;8.70;;;;;;;12.37;61.84;99631.07;1773959;80;20945;-41
2023/01/03 12:39:59;;;;;;;11.20;8.40;;;;;;;12.27;62.33;99631.11;1774044;80;21259;-41
2023/01/03 12:43:02;;;;;;;12.58;8.70;;;;;;;12.25;62.53;99640.80;1773998;80;21012;-41
2023/01/03 12:45:51;;;;;;;12.82;9.05;;;;;;;12.23;62.58;99646.58;1773798;80;20992;-41
2023/01/03 12:49:06;;;;;;;12.80;9.05;;;;;;;12.14;62.69;99647.41;1779962;80;21008;-41
2023/01/03 12:51:32;;;;;;;12.47;8.33;;;;;;;12.06;63.01;99663.35;1782494;80;21048;-41
2023/01/03 12:54:16;;;;;;;13.20;8.83;;;;;;;11.98;63.33;99669.25;1712593;80;23113;-41
2023/01/03 12:56:52;;;;;;;12.98;9.13;;;;;;;11.96;63.38;99669.38;1782489;80;20926;-41
2023/01/03 12:59:51;;;;;;;13.20;8.30;;;;;;;11.92;63.46;99670.68;1782544;80;20965;-41
2023/01/03 13:02:32;;;;;;;13.32;7.70;;;;;;;11.88;63.32;99673.13;1782445;80;21010;-41
2023/01/03 13:05:10;;;;;;;12.15;7.87;;;;;;;11.85;63.20;99677.92;1731440;80;21086;-41